sensor_id;sensor_type;location;lat;lon;timestamp;P1;durP1;ratioP1;P2;durP2;ratioP2
27199;SDS011;14714;48.106;11.546;2023-11-21T00:02:21;6.72;;;1.50;;
27199;SDS011;14714;48.106;11.546;2023-11-21T00:04:48;9.27;;;1.65;;
27199;SDS011;14714;48.106;11.546;2023-11-21T00:07:16;8.50;;;1.73;;
27199;SDS011;14714;48.106;11.546;2023-11-21T00:09:43;3.42;;;1.30;;
27199;SDS011;14714;48.106;11.546;2023-11-21T00:12:10;6.28;;;1.63;;
27199;SDS011;14714;48.106;11.546;2023-11-21T00:14:37;6.22;;;1.65;;
27199;SDS011;14714;48.106;11.546;2023-11-21T00:17:07;7.15;;;1.58;;
27199;SDS011;14714;48.106;11.546;2023-11-21T00:19:34;7.93;;;1.70;;
27199;SDS011;14714;48.106;11.546;2023-11-21T00:22:01;6.82;;;2.20;;
27199;SDS011;14714;48.106;11.546;2023-11-21T00:24:28;5.03;;;1.52;;
27199;SDS011;14714;48.106;11.546;2023-11-21T00:26:55;4.57;;;1.50;;
27199;SDS011;14714;48.106;11.546;2023-11-21T00:29:22;5.78;;;1.40;;
27199;SDS011;14714;48.106;11.546;2023-11-21T00:31:48;4.45;;;1.30;;
27199;SDS011;14714;48.106;11.546;2023-11-21T00:34:15;7.75;;;1.73;;
27199;SDS011;14714;48.106;11.546;2023-11-21T00:36:42;5.32;;;1.73;;
27199;SDS011;14714;48.106;11.546;2023-11-21T00:39:09;3.33;;;1.30;;
27199;SDS011;14714;48.106;11.546;2023-11-21T00:41:37;3.90;;;1.42;;
27199;SDS011;14714;48.106;11.546;2023-11-21T00:44:04;6.22;;;1.48;;
27199;SDS011;14714;48.106;11.546;2023-11-21T00:46:34;4.82;;;1.10;;
27199;SDS011;14714;48.106;11.546;2023-11-21T00:49:00;3.10;;;1.15;;
27199;SDS011;14714;48.106;11.546;2023-11-21T00:51:30;4.17;;;1.23;;
27199;SDS011;14714;48.106;11.546;2023-11-21T00:53:57;4.82;;;1.20;;
27199;SDS011;14714;48.106;11.546;2023-11-21T00:56:24;4.68;;;1.15;;
27199;SDS011;14714;48.106;11.546;2023-11-21T00:58:51;4.97;;;1.30;;
27199;SDS011;14714;48.106;11.546;2023-11-21T01:01:19;3.33;;;1.23;;
27199;SDS011;14714;48.106;11.546;2023-11-21T01:03:48;3.55;;;1.23;;
27199;SDS011;14714;48.106;11.546;2023-11-21T01:06:15;6.85;;;1.55;;
27199;SDS011;14714;48.106;11.546;2023-11-21T01:08:45;4.97;;;1.38;;
27199;SDS011;14714;48.106;11.546;2023-11-21T01:11:12;6.05;;;1.42;;
27199;SDS011;14714;48.106;11.546;2023-11-21T01:13:40;4.20;;;1.15;;
27199;SDS011;14714;48.106;11.546;2023-11-21T01:16:08;5.65;;;1.35;;
27199;SDS011;14714;48.106;11.546;2023-11-21T01:18:35;3.75;;;1.33;;
27199;SDS011;14714;48.106;11.546;2023-11-21T01:21:02;3.97;;;1.20;;
27199;SDS011;14714;48.106;11.546;2023-11-21T01:23:29;3.08;;;1.10;;
27199;SDS011;14714;48.106;11.546;2023-11-21T01:25:56;5.47;;;1.40;;
27199;SDS011;14714;48.106;11.546;2023-11-21T01:28:23;2.97;;;1.15;;
27199;SDS011;14714;48.106;11.546;2023-11-21T01:30:50;7.05;;;1.92;;
27199;SDS011;14714;48.106;11.546;2023-11-21T01:33:17;3.95;;;1.27;;
27199;SDS011;14714;48.106;11.546;2023-11-21T01:35:44;3.78;;;1.20;;
27199;SDS011;14714;48.106;11.546;2023-11-21T01:38:12;4.70;;;1.52;;
27199;SDS011;14714;48.106;11.546;2023-11-21T01:40:40;5.03;;;1.20;;
27199;SDS011;14714;48.106;11.546;2023-11-21T01:43:07;5.65;;;1.45;;
27199;SDS011;14714;48.106;11.546;2023-11-21T01:45:35;5.57;;;1.30;;
27199;SDS011;14714;48.106;11.546;2023-11-21T01:48:02;5.95;;;1.52;;
27199;SDS011;14714;48.106;11.546;2023-11-21T01:50:30;8.15;;;1.70;;
27199;SDS011;14714;48.106;11.546;2023-11-21T01:52:57;4.20;;;1.60;;
27199;SDS011;14714;48.106;11.546;2023-11-21T01:55:24;4.72;;;1.35;;
27199;SDS011;14714;48.106;11.546;2023-11-21T01:57:54;5.10;;;1.30;;
27199;SDS011;14714;48.106;11.546;2023-11-21T02:00:23;4.78;;;1.30;;
27199;SDS011;14714;48.106;11.546;2023-11-21T02:02:50;5.38;;;1.50;;
27199;SDS011;14714;48.106;11.546;2023-11-21T02:05:18;4.68;;;1.65;;
27199;SDS011;14714;48.106;11.546;2023-11-21T02:07:46;4.40;;;1.60;;
27199;SDS011;14714;48.106;11.546;2023-11-21T02:10:15;3.17;;;1.52;;
27199;SDS011;14714;48.106;11.546;2023-11-21T02:12:43;5.38;;;1.73;;
27199;SDS011;14714;48.106;11.546;2023-11-21T02:15:12;4.18;;;1.48;;
27199;SDS011;14714;48.106;11.546;2023-11-21T02:17:46;6.13;;;1.88;;
27199;SDS011;14714;48.106;11.546;2023-11-21T02:20:18;3.33;;;1.10;;
27199;SDS011;14714;48.106;11.546;2023-11-21T02:22:50;3.40;;;1.30;;
27199;SDS011;14714;48.106;11.546;2023-11-21T02:25:25;6.15;;;1.35;;
27199;SDS011;14714;48.106;11.546;2023-11-21T02:27:54;3.35;;;1.40;;
27199;SDS011;14714;48.106;11.546;2023-11-21T02:30:22;4.65;;;1.25;;
27199;SDS011;14714;48.106;11.546;2023-11-21T02:32:51;3.60;;;1.60;;
27199;SDS011;14714;48.106;11.546;2023-11-21T02:35:23;7.45;;;1.83;;
27199;SDS011;14714;48.106;11.546;2023-11-21T02:37:52;8.07;;;1.52;;
27199;SDS011;14714;48.106;11.546;2023-11-21T02:40:20;5.57;;;1.30;;
27199;SDS011;14714;48.106;11.546;2023-11-21T02:42:47;8.63;;;1.45;;
27199;SDS011;14714;48.106;11.546;2023-11-21T02:45:14;4.00;;;1.55;;
27199;SDS011;14714;48.106;11.546;2023-11-21T02:47:46;7.93;;;1.52;;
27199;SDS011;14714;48.106;11.546;2023-11-21T02:50:15;3.90;;;1.45;;
27199;SDS011;14714;48.106;11.546;2023-11-21T02:52:42;4.63;;;1.58;;
27199;SDS011;14714;48.106;11.546;2023-11-21T02:55:09;6.03;;;1.50;;
27199;SDS011;14714;48.106;11.546;2023-11-21T02:57:36;5.55;;;1.63;;
27199;SDS011;14714;48.106;11.546;2023-11-21T03:00:03;6.82;;;1.65;;
27199;SDS011;14714;48.106;11.546;2023-11-21T03:02:33;3.67;;;1.30;;
27199;SDS011;14714;48.106;11.546;2023-11-21T03:05:06;4.18;;;1.58;;
27199;SDS011;14714;48.106;11.546;2023-11-21T03:07:38;3.47;;;1.48;;
27199;SDS011;14714;48.106;11.546;2023-11-21T03:10:07;5.72;;;1.88;;
27199;SDS011;14714;48.106;11.546;2023-11-21T03:12:38;4.03;;;1.73;;
27199;SDS011;14714;48.106;11.546;2023-11-21T03:15:06;4.47;;;1.70;;
27199;SDS011;14714;48.106;11.546;2023-11-21T03:17:33;5.82;;;1.70;;
27199;SDS011;14714;48.106;11.546;2023-11-21T03:20:00;3.58;;;1.52;;
27199;SDS011;14714;48.106;11.546;2023-11-21T03:22:27;7.22;;;1.90;;
27199;SDS011;14714;48.106;11.546;2023-11-21T03:24:54;3.88;;;1.13;;
27199;SDS011;14714;48.106;11.546;2023-11-21T03:27:21;8.05;;;1.75;;
27199;SDS011;14714;48.106;11.546;2023-11-21T03:29:48;6.60;;;1.73;;
27199;SDS011;14714;48.106;11.546;2023-11-21T03:32:15;3.47;;;1.33;;
27199;SDS011;14714;48.106;11.546;2023-11-21T03:34:55;3.65;;;1.45;;
27199;SDS011;14714;48.106;11.546;2023-11-21T03:37:25;3.85;;;1.27;;
27199;SDS011;14714;48.106;11.546;2023-11-21T03:39:54;4.45;;;1.40;;
27199;SDS011;14714;48.106;11.546;2023-11-21T03:42:23;4.75;;;1.30;;
27199;SDS011;14714;48.106;11.546;2023-11-21T03:44:51;6.57;;;1.60;;
27199;SDS011;14714;48.106;11.546;2023-11-21T03:47:18;5.85;;;1.35;;
27199;SDS011;14714;48.106;11.546;2023-11-21T03:49:46;2.88;;;1.13;;
27199;SDS011;14714;48.106;11.546;2023-11-21T03:52:13;3.15;;;1.30;;
27199;SDS011;14714;48.106;11.546;2023-11-21T03:54:40;3.00;;;0.90;;
27199;SDS011;14714;48.106;11.546;2023-11-21T03:57:07;3.95;;;0.95;;
27199;SDS011;14714;48.106;11.546;2023-11-21T03:59:33;4.20;;;1.08;;
27199;SDS011;14714;48.106;11.546;2023-11-21T04:02:00;2.20;;;1.08;;
27199;SDS011;14714;48.106;11.546;2023-11-21T04:04:27;1.58;;;1.00;;
27199;SDS011;14714;48.106;11.546;2023-11-21T04:06:54;1.63;;;0.93;;
27199;SDS011;14714;48.106;11.546;2023-11-21T04:09:22;2.25;;;0.80;;
27199;SDS011;14714;48.106;11.546;2023-11-21T04:11:51;3.00;;;1.20;;
27199;SDS011;14714;48.106;11.546;2023-11-21T04:14:18;3.20;;;0.90;;
27199;SDS011;14714;48.106;11.546;2023-11-21T04:16:46;5.75;;;1.00;;
27199;SDS011;14714;48.106;11.546;2023-11-21T04:19:13;2.50;;;1.10;;
27199;SDS011;14714;48.106;11.546;2023-11-21T04:21:41;4.10;;;0.90;;
27199;SDS011;14714;48.106;11.546;2023-11-21T04:24:08;4.30;;;1.00;;
27199;SDS011;14714;48.106;11.546;2023-11-21T04:26:36;2.85;;;1.10;;
27199;SDS011;14714;48.106;11.546;2023-11-21T04:29:03;9.35;;;1.25;;
27199;SDS011;14714;48.106;11.546;2023-11-21T04:31:30;2.28;;;0.93;;
27199;SDS011;14714;48.106;11.546;2023-11-21T04:33:58;3.55;;;0.90;;
27199;SDS011;14714;48.106;11.546;2023-11-21T04:36:25;3.25;;;0.95;;
27199;SDS011;14714;48.106;11.546;2023-11-21T04:38:52;2.97;;;1.20;;
27199;SDS011;14714;48.106;11.546;2023-11-21T04:41:19;4.38;;;1.13;;
27199;SDS011;14714;48.106;11.546;2023-11-21T04:43:46;3.97;;;1.00;;
27199;SDS011;14714;48.106;11.546;2023-11-21T04:46:13;3.50;;;0.95;;
27199;SDS011;14714;48.106;11.546;2023-11-21T04:48:39;3.75;;;1.00;;
27199;SDS011;14714;48.106;11.546;2023-11-21T04:51:06;3.40;;;1.40;;
27199;SDS011;14714;48.106;11.546;2023-11-21T04:53:33;2.08;;;1.05;;
27199;SDS011;14714;48.106;11.546;2023-11-21T04:56:01;4.60;;;1.00;;
27199;SDS011;14714;48.106;11.546;2023-11-21T04:58:28;4.00;;;1.33;;
27199;SDS011;14714;48.106;11.546;2023-11-21T05:00:57;3.70;;;1.15;;
27199;SDS011;14714;48.106;11.546;2023-11-21T05:03:23;3.65;;;1.20;;
27199;SDS011;14714;48.106;11.546;2023-11-21T05:05:51;3.05;;;0.95;;
27199;SDS011;14714;48.106;11.546;2023-11-21T05:08:17;4.05;;;1.13;;
27199;SDS011;14714;48.106;11.546;2023-11-21T05:10:46;3.58;;;1.00;;
27199;SDS011;14714;48.106;11.546;2023-11-21T05:13:14;2.85;;;0.98;;
27199;SDS011;14714;48.106;11.546;2023-11-21T05:15:44;3.90;;;1.10;;
27199;SDS011;14714;48.106;11.546;2023-11-21T05:18:11;5.38;;;1.25;;
27199;SDS011;14714;48.106;11.546;2023-11-21T05:20:40;2.33;;;1.00;;
27199;SDS011;14714;48.106;11.546;2023-11-21T05:23:07;2.13;;;0.90;;
27199;SDS011;14714;48.106;11.546;2023-11-21T05:25:34;2.80;;;0.80;;
27199;SDS011;14714;48.106;11.546;2023-11-21T05:28:06;3.33;;;1.00;;
27199;SDS011;14714;48.106;11.546;2023-11-21T05:30:33;2.15;;;1.00;;
27199;SDS011;14714;48.106;11.546;2023-11-21T05:33:00;1.17;;;0.80;;
27199;SDS011;14714;48.106;11.546;2023-11-21T05:35:27;2.60;;;1.05;;
27199;SDS011;14714;48.106;11.546;2023-11-21T05:37:53;2.65;;;0.93;;
27199;SDS011;14714;48.106;11.546;2023-11-21T05:40:20;5.15;;;1.17;;
27199;SDS011;14714;48.106;11.546;2023-11-21T05:42:48;3.08;;;1.20;;
27199;SDS011;14714;48.106;11.546;2023-11-21T05:45:17;3.05;;;1.00;;
27199;SDS011;14714;48.106;11.546;2023-11-21T05:47:45;3.80;;;1.30;;
27199;SDS011;14714;48.106;11.546;2023-11-21T05:50:14;4.13;;;0.95;;
27199;SDS011;14714;48.106;11.546;2023-11-21T05:52:43;3.13;;;1.00;;
27199;SDS011;14714;48.106;11.546;2023-11-21T05:55:11;2.80;;;1.10;;
27199;SDS011;14714;48.106;11.546;2023-11-21T05:57:39;5.20;;;1.45;;
27199;SDS011;14714;48.106;11.546;2023-11-21T06:00:09;3.83;;;1.30;;
27199;SDS011;14714;48.106;11.546;2023-11-21T06:02:38;5.25;;;1.35;;
27199;SDS011;14714;48.106;11.546;2023-11-21T06:05:06;2.80;;;1.20;;
27199;SDS011;14714;48.106;11.546;2023-11-21T06:07:34;2.97;;;1.30;;
27199;SDS011;14714;48.106;11.546;2023-11-21T06:10:02;3.30;;;1.17;;
27199;SDS011;14714;48.106;11.546;2023-11-21T06:12:32;2.13;;;1.10;;
27199;SDS011;14714;48.106;11.546;2023-11-21T06:15:02;3.00;;;1.23;;
27199;SDS011;14714;48.106;11.546;2023-11-21T06:17:31;4.97;;;1.17;;
27199;SDS011;14714;48.106;11.546;2023-11-21T06:19:58;2.65;;;0.80;;
27199;SDS011;14714;48.106;11.546;2023-11-21T06:22:25;3.25;;;1.00;;
27199;SDS011;14714;48.106;11.546;2023-11-21T06:24:52;5.50;;;1.70;;
27199;SDS011;14714;48.106;11.546;2023-11-21T06:27:19;3.33;;;1.10;;
27199;SDS011;14714;48.106;11.546;2023-11-21T06:29:46;2.00;;;1.10;;
27199;SDS011;14714;48.106;11.546;2023-11-21T06:32:13;3.10;;;1.10;;
27199;SDS011;14714;48.106;11.546;2023-11-21T06:34:43;1.27;;;0.82;;
27199;SDS011;14714;48.106;11.546;2023-11-21T06:37:09;2.85;;;1.20;;
27199;SDS011;14714;48.106;11.546;2023-11-21T06:39:37;2.55;;;1.05;;
27199;SDS011;14714;48.106;11.546;2023-11-21T06:42:04;2.75;;;1.23;;
27199;SDS011;14714;48.106;11.546;2023-11-21T06:44:31;4.03;;;1.10;;
27199;SDS011;14714;48.106;11.546;2023-11-21T06:46:59;3.13;;;0.90;;
27199;SDS011;14714;48.106;11.546;2023-11-21T06:49:26;4.80;;;1.38;;
27199;SDS011;14714;48.106;11.546;2023-11-21T06:51:53;3.88;;;1.33;;
27199;SDS011;14714;48.106;11.546;2023-11-21T06:54:21;3.47;;;1.38;;
27199;SDS011;14714;48.106;11.546;2023-11-21T06:56:48;3.67;;;1.13;;
27199;SDS011;14714;48.106;11.546;2023-11-21T06:59:15;2.55;;;1.00;;
27199;SDS011;14714;48.106;11.546;2023-11-21T07:01:42;4.63;;;1.10;;
27199;SDS011;14714;48.106;11.546;2023-11-21T07:04:09;1.73;;;0.90;;
27199;SDS011;14714;48.106;11.546;2023-11-21T07:06:36;1.10;;;0.90;;
27199;SDS011;14714;48.106;11.546;2023-11-21T07:09:04;1.20;;;0.93;;
27199;SDS011;14714;48.106;11.546;2023-11-21T07:11:30;2.50;;;1.00;;
27199;SDS011;14714;48.106;11.546;2023-11-21T07:13:59;3.83;;;1.17;;
27199;SDS011;14714;48.106;11.546;2023-11-21T07:16:26;2.33;;;1.00;;
27199;SDS011;14714;48.106;11.546;2023-11-21T07:18:53;1.70;;;0.90;;
27199;SDS011;14714;48.106;11.546;2023-11-21T07:21:21;3.13;;;1.27;;
27199;SDS011;14714;48.106;11.546;2023-11-21T07:23:48;4.10;;;1.60;;
27199;SDS011;14714;48.106;11.546;2023-11-21T07:26:14;2.38;;;1.30;;
27199;SDS011;14714;48.106;11.546;2023-11-21T07:28:41;4.60;;;1.50;;
27199;SDS011;14714;48.106;11.546;2023-11-21T07:31:08;4.72;;;1.38;;
27199;SDS011;14714;48.106;11.546;2023-11-21T07:33:35;5.00;;;1.20;;
27199;SDS011;14714;48.106;11.546;2023-11-21T07:36:03;2.85;;;1.15;;
27199;SDS011;14714;48.106;11.546;2023-11-21T07:38:31;1.08;;;0.80;;
27199;SDS011;14714;48.106;11.546;2023-11-21T07:40:59;2.17;;;0.90;;
27199;SDS011;14714;48.106;11.546;2023-11-21T07:43:27;2.53;;;0.90;;
27199;SDS011;14714;48.106;11.546;2023-11-21T07:46:01;2.22;;;0.93;;
27199;SDS011;14714;48.106;11.546;2023-11-21T07:50:58;3.50;;;1.00;;
27199;SDS011;14714;48.106;11.546;2023-11-21T07:53:25;1.90;;;0.80;;
27199;SDS011;14714;48.106;11.546;2023-11-21T07:56:07;2.20;;;0.95;;
27199;SDS011;14714;48.106;11.546;2023-11-21T07:58:35;5.93;;;0.98;;
27199;SDS011;14714;48.106;11.546;2023-11-21T08:01:03;2.35;;;0.90;;
27199;SDS011;14714;48.106;11.546;2023-11-21T08:03:30;2.00;;;1.10;;
27199;SDS011;14714;48.106;11.546;2023-11-21T08:05:57;4.32;;;1.35;;
27199;SDS011;14714;48.106;11.546;2023-11-21T08:08:25;3.47;;;1.08;;
27199;SDS011;14714;48.106;11.546;2023-11-21T08:10:53;4.03;;;1.05;;
27199;SDS011;14714;48.106;11.546;2023-11-21T08:13:23;5.18;;;1.10;;
27199;SDS011;14714;48.106;11.546;2023-11-21T08:15:50;1.42;;;0.90;;
27199;SDS011;14714;48.106;11.546;2023-11-21T08:18:20;1.42;;;0.88;;
27199;SDS011;14714;48.106;11.546;2023-11-21T08:20:47;1.85;;;0.80;;
27199;SDS011;14714;48.106;11.546;2023-11-21T08:23:14;2.92;;;1.10;;
27199;SDS011;14714;48.106;11.546;2023-11-21T08:25:45;2.78;;;1.30;;
27199;SDS011;14714;48.106;11.546;2023-11-21T08:28:12;1.35;;;0.80;;
27199;SDS011;14714;48.106;11.546;2023-11-21T08:30:42;2.22;;;1.08;;
27199;SDS011;14714;48.106;11.546;2023-11-21T08:33:10;1.42;;;0.70;;
27199;SDS011;14714;48.106;11.546;2023-11-21T08:35:39;1.27;;;0.77;;
27199;SDS011;14714;48.106;11.546;2023-11-21T08:38:06;2.97;;;0.80;;
27199;SDS011;14714;48.106;11.546;2023-11-21T08:40:34;1.50;;;0.73;;
27199;SDS011;14714;48.106;11.546;2023-11-21T08:43:01;2.70;;;1.00;;
27199;SDS011;14714;48.106;11.546;2023-11-21T08:45:30;1.45;;;0.85;;
27199;SDS011;14714;48.106;11.546;2023-11-21T08:48:00;1.85;;;0.68;;
27199;SDS011;14714;48.106;11.546;2023-11-21T08:50:27;2.30;;;1.00;;
27199;SDS011;14714;48.106;11.546;2023-11-21T08:52:55;4.28;;;1.00;;
27199;SDS011;14714;48.106;11.546;2023-11-21T08:55:22;1.85;;;0.98;;
27199;SDS011;14714;48.106;11.546;2023-11-21T08:57:49;1.55;;;0.70;;
27199;SDS011;14714;48.106;11.546;2023-11-21T09:00:17;2.45;;;0.85;;
27199;SDS011;14714;48.106;11.546;2023-11-21T09:02:46;1.60;;;0.90;;
27199;SDS011;14714;48.106;11.546;2023-11-21T09:05:13;1.77;;;0.77;;
27199;SDS011;14714;48.106;11.546;2023-11-21T09:07:41;2.45;;;0.80;;
27199;SDS011;14714;48.106;11.546;2023-11-21T09:10:08;1.98;;;0.88;;
27199;SDS011;14714;48.106;11.546;2023-11-21T09:12:36;2.42;;;0.90;;
27199;SDS011;14714;48.106;11.546;2023-11-21T09:15:05;1.52;;;0.95;;
27199;SDS011;14714;48.106;11.546;2023-11-21T09:17:33;4.63;;;0.73;;
27199;SDS011;14714;48.106;11.546;2023-11-21T09:20:01;1.60;;;0.60;;
27199;SDS011;14714;48.106;11.546;2023-11-21T09:22:32;2.10;;;0.90;;
27199;SDS011;14714;48.106;11.546;2023-11-21T09:24:59;1.30;;;0.60;;
27199;SDS011;14714;48.106;11.546;2023-11-21T09:27:26;2.92;;;0.95;;
27199;SDS011;14714;48.106;11.546;2023-11-21T09:29:53;2.03;;;1.08;;
27199;SDS011;14714;48.106;11.546;2023-11-21T09:32:20;2.25;;;0.80;;
27199;SDS011;14714;48.106;11.546;2023-11-21T09:34:50;2.92;;;1.00;;
27199;SDS011;14714;48.106;11.546;2023-11-21T09:37:17;3.42;;;1.20;;
27199;SDS011;14714;48.106;11.546;2023-11-21T09:39:45;3.25;;;1.10;;
27199;SDS011;14714;48.106;11.546;2023-11-21T09:42:20;3.13;;;1.02;;
27199;SDS011;14714;48.106;11.546;2023-11-21T09:44:54;2.38;;;1.10;;
27199;SDS011;14714;48.106;11.546;2023-11-21T09:47:27;1.45;;;1.08;;
27199;SDS011;14714;48.106;11.546;2023-11-21T09:49:54;2.15;;;1.02;;
27199;SDS011;14714;48.106;11.546;2023-11-21T09:52:26;2.85;;;1.20;;
27199;SDS011;14714;48.106;11.546;2023-11-21T09:54:55;2.45;;;1.08;;
27199;SDS011;14714;48.106;11.546;2023-11-21T09:57:25;2.97;;;1.08;;
27199;SDS011;14714;48.106;11.546;2023-11-21T09:59:53;2.17;;;0.93;;
27199;SDS011;14714;48.106;11.546;2023-11-21T10:02:28;1.85;;;1.00;;
27199;SDS011;14714;48.106;11.546;2023-11-21T10:04:58;3.50;;;1.38;;
27199;SDS011;14714;48.106;11.546;2023-11-21T10:07:27;1.90;;;1.07;;
27199;SDS011;14714;48.106;11.546;2023-11-21T10:12:25;3.40;;;0.98;;
27199;SDS011;14714;48.106;11.546;2023-11-21T10:14:56;2.78;;;1.10;;
27199;SDS011;14714;48.106;11.546;2023-11-21T10:17:26;3.95;;;1.10;;
27199;SDS011;14714;48.106;11.546;2023-11-21T10:19:58;2.88;;;0.98;;
27199;SDS011;14714;48.106;11.546;2023-11-21T10:22:29;3.47;;;1.13;;
27199;SDS011;14714;48.106;11.546;2023-11-21T10:24:56;2.00;;;1.00;;
27199;SDS011;14714;48.106;11.546;2023-11-21T10:27:23;2.13;;;1.20;;
27199;SDS011;14714;48.106;11.546;2023-11-21T10:29:53;2.65;;;1.10;;
27199;SDS011;14714;48.106;11.546;2023-11-21T10:32:20;2.80;;;1.00;;
27199;SDS011;14714;48.106;11.546;2023-11-21T10:34:57;4.85;;;1.10;;
27199;SDS011;14714;48.106;11.546;2023-11-21T10:37:24;2.20;;;1.08;;
27199;SDS011;14714;48.106;11.546;2023-11-21T10:39:55;1.30;;;1.00;;
27199;SDS011;14714;48.106;11.546;2023-11-21T10:42:24;3.50;;;1.40;;
27199;SDS011;14714;48.106;11.546;2023-11-21T10:44:52;4.13;;;1.20;;
27199;SDS011;14714;48.106;11.546;2023-11-21T10:47:20;3.05;;;0.93;;
27199;SDS011;14714;48.106;11.546;2023-11-21T10:49:48;1.70;;;1.00;;
27199;SDS011;14714;48.106;11.546;2023-11-21T10:52:17;1.33;;;0.85;;
27199;SDS011;14714;48.106;11.546;2023-11-21T10:54:46;2.83;;;1.10;;
27199;SDS011;14714;48.106;11.546;2023-11-21T10:57:15;2.83;;;1.00;;
27199;SDS011;14714;48.106;11.546;2023-11-21T10:59:47;2.95;;;1.25;;
27199;SDS011;14714;48.106;11.546;2023-11-21T11:02:21;2.15;;;0.93;;
27199;SDS011;14714;48.106;11.546;2023-11-21T11:05:01;3.22;;;1.20;;
27199;SDS011;14714;48.106;11.546;2023-11-21T11:07:29;2.75;;;1.10;;
27199;SDS011;14714;48.106;11.546;2023-11-21T11:09:59;1.77;;;1.17;;
27199;SDS011;14714;48.106;11.546;2023-11-21T11:12:26;3.33;;;1.35;;
27199;SDS011;14714;48.106;11.546;2023-11-21T11:14:54;1.60;;;1.30;;
27199;SDS011;14714;48.106;11.546;2023-11-21T11:17:22;2.53;;;1.40;;
27199;SDS011;14714;48.106;11.546;2023-11-21T11:19:49;1.95;;;1.20;;
27199;SDS011;14714;48.106;11.546;2023-11-21T11:22:37;2.10;;;0.95;;
27199;SDS011;14714;48.106;11.546;2023-11-21T11:28:11;3.00;;;1.15;;
27199;SDS011;14714;48.106;11.546;2023-11-21T11:36:28;1.77;;;1.17;;
27199;SDS011;14714;48.106;11.546;2023-11-21T11:39:00;2.20;;;1.05;;
27199;SDS011;14714;48.106;11.546;2023-11-21T11:41:30;3.30;;;1.08;;
27199;SDS011;14714;48.106;11.546;2023-11-21T11:44:01;1.67;;;0.95;;
27199;SDS011;14714;48.106;11.546;2023-11-21T11:46:44;2.33;;;0.98;;
27199;SDS011;14714;48.106;11.546;2023-11-21T11:49:24;6.28;;;1.40;;
27199;SDS011;14714;48.106;11.546;2023-11-21T11:55:03;1.23;;;1.10;;
27199;SDS011;14714;48.106;11.546;2023-11-21T11:57:30;1.83;;;1.17;;
27199;SDS011;14714;48.106;11.546;2023-11-21T12:00:18;3.78;;;1.25;;
27199;SDS011;14714;48.106;11.546;2023-11-21T12:02:48;2.05;;;0.90;;
27199;SDS011;14714;48.106;11.546;2023-11-21T12:05:16;2.35;;;1.30;;
27199;SDS011;14714;48.106;11.546;2023-11-21T12:07:45;2.05;;;1.20;;
27199;SDS011;14714;48.106;11.546;2023-11-21T12:10:24;3.72;;;1.30;;
27199;SDS011;14714;48.106;11.546;2023-11-21T12:12:54;2.15;;;0.90;;
27199;SDS011;14714;48.106;11.546;2023-11-21T12:15:22;3.85;;;1.63;;
27199;SDS011;14714;48.106;11.546;2023-11-21T12:17:50;1.70;;;1.00;;
27199;SDS011;14714;48.106;11.546;2023-11-21T12:20:21;3.65;;;1.00;;
27199;SDS011;14714;48.106;11.546;2023-11-21T12:22:50;4.75;;;1.10;;
27199;SDS011;14714;48.106;11.546;2023-11-21T12:25:19;7.22;;;1.20;;
27199;SDS011;14714;48.106;11.546;2023-11-21T12:27:51;7.93;;;1.73;;
27199;SDS011;14714;48.106;11.546;2023-11-21T12:30:19;3.08;;;1.20;;
27199;SDS011;14714;48.106;11.546;2023-11-21T12:32:49;1.97;;;1.10;;
27199;SDS011;14714;48.106;11.546;2023-11-21T12:35:18;3.25;;;1.33;;
27199;SDS011;14714;48.106;11.546;2023-11-21T12:37:47;2.55;;;1.15;;
27199;SDS011;14714;48.106;11.546;2023-11-21T12:40:15;1.45;;;1.10;;
27199;SDS011;14714;48.106;11.546;2023-11-21T12:42:44;1.95;;;0.93;;
27199;SDS011;14714;48.106;11.546;2023-11-21T12:47:43;2.85;;;0.90;;
27199;SDS011;14714;48.106;11.546;2023-11-21T12:50:14;1.90;;;0.80;;
27199;SDS011;14714;48.106;11.546;2023-11-21T12:52:42;2.30;;;0.93;;
27199;SDS011;14714;48.106;11.546;2023-11-21T12:55:20;3.05;;;1.08;;
27199;SDS011;14714;48.106;11.546;2023-11-21T12:57:51;1.00;;;0.88;;
27199;SDS011;14714;48.106;11.546;2023-11-21T13:00:34;3.72;;;1.00;;
27199;SDS011;14714;48.106;11.546;2023-11-21T13:03:06;2.30;;;1.27;;
27199;SDS011;14714;48.106;11.546;2023-11-21T13:05:39;2.85;;;1.00;;
27199;SDS011;14714;48.106;11.546;2023-11-21T13:08:15;3.30;;;1.17;;
27199;SDS011;14714;48.106;11.546;2023-11-21T13:10:46;4.13;;;1.15;;
27199;SDS011;14714;48.106;11.546;2023-11-21T13:13:16;1.95;;;1.10;;
27199;SDS011;14714;48.106;11.546;2023-11-21T13:18:18;1.15;;;1.05;;
27199;SDS011;14714;48.106;11.546;2023-11-21T13:20:48;4.07;;;0.98;;
27199;SDS011;14714;48.106;11.546;2023-11-21T13:23:15;2.03;;;1.00;;
27199;SDS011;14714;48.106;11.546;2023-11-21T13:25:43;1.83;;;1.15;;
27199;SDS011;14714;48.106;11.546;2023-11-21T13:28:19;2.60;;;1.00;;
27199;SDS011;14714;48.106;11.546;2023-11-21T13:33:19;3.08;;;1.30;;
27199;SDS011;14714;48.106;11.546;2023-11-21T13:35:48;2.38;;;1.40;;
27199;SDS011;14714;48.106;11.546;2023-11-21T13:38:17;1.45;;;1.00;;
27199;SDS011;14714;48.106;11.546;2023-11-21T13:40:49;2.28;;;1.05;;
27199;SDS011;14714;48.106;11.546;2023-11-21T13:43:21;1.95;;;0.98;;
27199;SDS011;14714;48.106;11.546;2023-11-21T13:45:52;2.88;;;1.35;;
27199;SDS011;14714;48.106;11.546;2023-11-21T13:48:29;3.13;;;1.33;;
27199;SDS011;14714;48.106;11.546;2023-11-21T13:51:07;1.45;;;1.10;;
27199;SDS011;14714;48.106;11.546;2023-11-21T13:53:47;1.50;;;1.08;;
27199;SDS011;14714;48.106;11.546;2023-11-21T13:56:16;2.92;;;1.20;;
27199;SDS011;14714;48.106;11.546;2023-11-21T13:58:48;1.52;;;1.17;;
27199;SDS011;14714;48.106;11.546;2023-11-21T14:01:19;3.17;;;1.10;;
27199;SDS011;14714;48.106;11.546;2023-11-21T14:03:50;1.80;;;1.15;;
27199;SDS011;14714;48.106;11.546;2023-11-21T14:06:23;0.70;;;0.70;;
27199;SDS011;14714;48.106;11.546;2023-11-21T14:08:56;0.80;;;0.57;;
27199;SDS011;14714;48.106;11.546;2023-11-21T14:11:23;2.72;;;0.70;;
27199;SDS011;14714;48.106;11.546;2023-11-21T14:13:55;6.03;;;0.80;;
27199;SDS011;14714;48.106;11.546;2023-11-21T14:16:22;1.92;;;1.00;;
27199;SDS011;14714;48.106;11.546;2023-11-21T14:18:49;0.60;;;0.40;;
27199;SDS011;14714;48.106;11.546;2023-11-21T14:21:24;1.58;;;0.80;;
27199;SDS011;14714;48.106;11.546;2023-11-21T14:23:52;1.80;;;0.90;;
27199;SDS011;14714;48.106;11.546;2023-11-21T14:26:20;2.38;;;1.25;;
27199;SDS011;14714;48.106;11.546;2023-11-21T14:28:50;1.87;;;1.17;;
27199;SDS011;14714;48.106;11.546;2023-11-21T14:31:17;4.35;;;1.48;;
27199;SDS011;14714;48.106;11.546;2023-11-21T14:33:44;1.80;;;1.17;;
27199;SDS011;14714;48.106;11.546;2023-11-21T14:36:11;1.35;;;0.77;;
27199;SDS011;14714;48.106;11.546;2023-11-21T14:38:38;1.40;;;0.80;;
27199;SDS011;14714;48.106;11.546;2023-11-21T14:41:06;2.17;;;1.30;;
27199;SDS011;14714;48.106;11.546;2023-11-21T14:43:37;2.30;;;1.00;;
27199;SDS011;14714;48.106;11.546;2023-11-21T14:46:05;2.13;;;1.50;;
27199;SDS011;14714;48.106;11.546;2023-11-21T14:48:36;2.45;;;1.40;;
27199;SDS011;14714;48.106;11.546;2023-11-21T14:51:09;3.35;;;1.70;;
27199;SDS011;14714;48.106;11.546;2023-11-21T14:53:54;1.77;;;1.42;;
27199;SDS011;14714;48.106;11.546;2023-11-21T14:56:21;2.25;;;1.17;;
27199;SDS011;14714;48.106;11.546;2023-11-21T14:58:53;1.40;;;1.30;;
27199;SDS011;14714;48.106;11.546;2023-11-21T15:01:22;1.30;;;1.00;;
27199;SDS011;14714;48.106;11.546;2023-11-21T15:04:00;1.52;;;1.10;;
27199;SDS011;14714;48.106;11.546;2023-11-21T15:06:28;1.83;;;1.00;;
27199;SDS011;14714;48.106;11.546;2023-11-21T15:08:57;1.13;;;1.02;;